Time;durP1;ratioP1;P1;durP2;ratioP2;P2;SDS_P1;SDS_P2;PMS_P1;PMS_P2;Temp;Humidity;BMP_temperature;BMP_pressure;BME280_temperature;BME280_humidity;BME280_pressure;Samples;Min_cycle;Max_cycle;Signal;HPM_P1;HPM_P2
2023/01/26 00:02:16;;;;;;;5.05;3.47;;;;;;;;;;5093338;28;20016;-59
2023/01/26 00:04:41;;;;;;;3.58;2.53;;;;;;;;;;5093470;28;20749;-60
2023/01/26 00:07:08;;;;;;;4.18;2.90;;;;;;;;;;5093198;28;20047;-59
2023/01/26 00:09:33;;;;;;;4.75;2.70;;;;;;;;;;5091177;28;20020;-57
2023/01/26 00:11:59;;;;;;;5.40;3.88;;;;;;;;;;5093168;28;20532;-62
2023/01/26 00:14:24;;;;;;;3.63;2.88;;;;;;;;;;5092018;28;20024;-58
2023/01/26 00:16:50;;;;;;;6.25;3.28;;;;;;;;;;5093973;28;20024;-62
2023/01/26 00:19:15;;;;;;;4.05;3.05;;;;;;;;;;5093909;28;20022;-59
2023/01/26 00:21:40;;;;;;;5.93;3.90;;;;;;;;;;5094589;28;20012;-57
2023/01/26 00:24:06;;;;;;;6.00;2.90;;;;;;;;;;5093653;28;20062;-59
2023/01/26 00:26:31;;;;;;;3.47;2.70;;;;;;;;;;5093910;28;20057;-59
2023/01/26 00:28:59;;;;;;;5.95;2.83;;;;;;;;;;5091835;28;20032;-59
2023/01/26 00:31:26;;;;;;;5.28;2.90;;;;;;;;;;5093120;28;20016;-58
2023/01/26 00:33:52;;;;;;;5.38;3.55;;;;;;;;;;5093319;28;20031;-59
2023/01/26 00:36:18;;;;;;;5.30;3.63;;;;;;;;;;5093063;28;20035;-58
2023/01/26 00:38:44;;;;;;;6.85;3.95;;;;;;;;;;5092866;28;20099;-58
2023/01/26 00:42:05;;;;;;;6.18;3.53;;;;;;;;;;5092830;28;20422;-58
2023/01/26 00:43:58;;;;;;;5.53;3.90;;;;;;;;;;5092922;28;20443;-61
2023/01/26 00:46:24;;;;;;;8.10;4.75;;;;;;;;;;5091626;28;20069;-58
2023/01/26 00:48:49;;;;;;;5.60;3.35;;;;;;;;;;5091532;28;20020;-58
2023/01/26 00:51:15;;;;;;;6.65;4.35;;;;;;;;;;5092536;28;20055;-58
2023/01/26 00:53:40;;;;;;;7.85;4.20;;;;;;;;;;5091684;28;20082;-59
2023/01/26 00:56:06;;;;;;;7.78;4.53;;;;;;;;;;5092974;28;20016;-58
2023/01/26 00:58:31;;;;;;;7.30;4.07;;;;;;;;;;5094468;28;20480;-59
2023/01/26 01:00:57;;;;;;;6.88;4.22;;;;;;;;;;5092270;28;20056;-59
2023/01/26 01:03:22;;;;;;;7.72;5.50;;;;;;;;;;5093316;28;20012;-60
2023/01/26 01:05:47;;;;;;;8.55;5.07;;;;;;;;;;5093284;28;20408;-60
2023/01/26 01:08:13;;;;;;;6.50;4.22;;;;;;;;;;5092927;28;20028;-59
2023/01/26 01:10:38;;;;;;;8.68;5.35;;;;;;;;;;5093847;28;20106;-62
2023/01/26 01:13:04;;;;;;;7.63;4.35;;;;;;;;;;5093705;28;20020;-58
2023/01/26 01:15:29;;;;;;;7.28;4.53;;;;;;;;;;5091788;28;20027;-57
2023/01/26 01:17:55;;;;;;;8.70;4.85;;;;;;;;;;5092531;28;20095;-64
2023/01/26 01:20:20;;;;;;;8.15;4.93;;;;;;;;;;5094145;28;20020;-58
2023/01/26 01:22:46;;;;;;;7.07;4.95;;;;;;;;;;5094997;28;20050;-59
2023/01/26 01:25:11;;;;;;;6.32;4.60;;;;;;;;;;5095022;28;20016;-58
2023/01/26 01:27:36;;;;;;;7.18;4.75;;;;;;;;;;5096189;28;20487;-58
2023/01/26 01:30:06;;;;;;;6.40;4.40;;;;;;;;;;5096370;28;20024;-59
2023/01/26 01:32:33;;;;;;;7.10;4.40;;;;;;;;;;5094636;28;20080;-60
2023/01/26 01:34:58;;;;;;;7.15;4.30;;;;;;;;;;5094528;28;20031;-58
2023/01/26 01:37:23;;;;;;;6.63;4.75;;;;;;;;;;5094786;28;20464;-57
2023/01/26 01:39:49;;;;;;;7.15;4.47;;;;;;;;;;5094660;28;20020;-63
2023/01/26 01:42:14;;;;;;;7.03;4.28;;;;;;;;;;5094611;28;20012;-58
2023/01/26 01:44:42;;;;;;;7.40;5.00;;;;;;;;;;5094887;28;20024;-59
2023/01/26 01:47:22;;;;;;;6.07;4.18;;;;;;;;;;5094930;28;20027;-58
2023/01/26 01:49:49;;;;;;;7.63;4.35;;;;;;;;;;5095989;28;20495;-63
2023/01/26 01:52:17;;;;;;;7.72;4.03;;;;;;;;;;5094551;28;20018;-65
2023/01/26 01:54:54;;;;;;;7.05;5.13;;;;;;;;;;5094579;28;20049;-58
2023/01/26 01:57:27;;;;;;;7.82;5.15;;;;;;;;;;5094015;28;20020;-58
2023/01/26 01:59:59;;;;;;;8.43;5.47;;;;;;;;;;5094428;28;20040;-58
2023/01/26 02:02:24;;;;;;;6.35;4.25;;;;;;;;;;5094010;28;20077;-59
2023/01/26 02:04:50;;;;;;;7.53;5.07;;;;;;;;;;5094265;28;20056;-59
2023/01/26 02:07:15;;;;;;;9.77;5.93;;;;;;;;;;5094063;28;20028;-58
2023/01/26 02:12:28;;;;;;;8.95;5.38;;;;;;;;;;5095420;28;20085;-58
2023/01/26 02:14:55;;;;;;;10.15;5.15;;;;;;;;;;5093634;28;20093;-59
2023/01/26 02:17:21;;;;;;;10.68;5.75;;;;;;;;;;5095692;28;20020;-59
2023/01/26 02:20:09;;;;;;;12.52;5.90;;;;;;;;;;5093869;28;20066;-57
2023/01/26 02:22:41;;;;;;;9.70;5.28;;;;;;;;;;5056025;28;20112;-59
2023/01/26 02:25:12;;;;;;;12.15;5.50;;;;;;;;;;5094772;28;20077;-59
2023/01/26 02:27:37;;;;;;;10.60;5.57;;;;;;;;;;5093773;28;20020;-68
2023/01/26 02:30:04;;;;;;;9.85;5.68;;;;;;;;;;5093442;28;20537;-64
2023/01/26 02:32:30;;;;;;;12.40;6.57;;;;;;;;;;5092825;28;20453;-59
2023/01/26 02:34:56;;;;;;;10.43;5.45;;;;;;;;;;5094941;28;20122;-59
2023/01/26 02:37:22;;;;;;;10.52;5.45;;;;;;;;;;5094777;28;20069;-59
2023/01/26 02:39:50;;;;;;;10.40;5.68;;;;;;;;;;5093566;28;20403;-57
2023/01/26 02:44:59;;;;;;;12.85;6.43;;;;;;;;;;5097566;28;20065;-59
2023/01/26 02:47:25;;;;;;;15.07;6.65;;;;;;;;;;5097772;28;20508;-61
2023/01/26 02:49:50;;;;;;;13.35;6.05;;;;;;;;;;5096859;28;20488;-67
2023/01/26 02:52:17;;;;;;;10.52;5.60;;;;;;;;;;5096379;28;20475;-58
2023/01/26 02:57:26;;;;;;;15.00;5.70;;;;;;;;;;5097017;28;20031;-61
2023/01/26 02:59:52;;;;;;;11.65;5.80;;;;;;;;;;5094472;28;20020;-58
2023/01/26 03:02:18;;;;;;;10.95;5.38;;;;;;;;;;5095271;28;20055;-59
2023/01/26 03:04:43;;;;;;;12.85;6.72;;;;;;;;;;5093560;28;20048;-59
2023/01/26 03:07:09;;;;;;;13.63;6.68;;;;;;;;;;5094543;28;20424;-58
2023/01/26 03:09:36;;;;;;;13.07;6.93;;;;;;;;;;5093857;28;20023;-58
2023/01/26 03:12:01;;;;;;;14.13;6.70;;;;;;;;;;5095104;28;20561;-62
2023/01/26 03:14:27;;;;;;;16.92;6.72;;;;;;;;;;5094919;28;20116;-59
2023/01/26 03:16:54;;;;;;;15.48;6.75;;;;;;;;;;5094173;28;20024;-59
2023/01/26 03:27:40;;;;;;;19.27;8.02;;;;;;;;;;5094006;28;20537;-58
2023/01/26 03:30:05;;;;;;;15.35;7.78;;;;;;;;;;5093744;28;20476;-58
2023/01/26 03:32:31;;;;;;;17.10;6.95;;;;;;;;;;5093778;28;20028;-57
2023/01/26 03:34:57;;;;;;;19.77;8.00;;;;;;;;;;5093194;28;20073;-57
2023/01/26 03:37:23;;;;;;;13.52;6.90;;;;;;;;;;5092354;28;20035;-58
2023/01/26 03:56:21;;;;;;;15.57;7.57;;;;;;;;;;5093933;28;20027;-61
2023/01/26 03:58:51;;;;;;;14.20;6.97;;;;;;;;;;5093596;28;20023;-60
2023/01/26 04:01:19;;;;;;;14.38;7.40;;;;;;;;;;5093388;28;20055;-59
2023/01/26 04:09:14;;;;;;;16.83;7.78;;;;;;;;;;5094330;28;20031;-59
2023/01/26 04:11:39;;;;;;;13.23;7.03;;;;;;;;;;5094131;28;20016;-64
2023/01/26 04:22:17;;;;;;;11.52;6.30;;;;;;;;;;5094846;28;20111;-59
2023/01/26 04:24:43;;;;;;;13.32;6.90;;;;;;;;;;5092398;28;20134;-59
2023/01/26 04:27:08;;;;;;;12.30;7.00;;;;;;;;;;5094623;28;20429;-61
2023/01/26 04:29:34;;;;;;;13.02;6.95;;;;;;;;;;5094311;28;20047;-59
2023/01/26 04:32:00;;;;;;;13.05;7.25;;;;;;;;;;5093664;28;20099;-65
2023/01/26 04:34:25;;;;;;;13.25;6.57;;;;;;;;;;5091724;28;20127;-59
2023/01/26 04:36:50;;;;;;;15.68;7.00;;;;;;;;;;5094445;28;20510;-59
2023/01/26 04:39:16;;;;;;;12.30;7.15;;;;;;;;;;5091806;28;20039;-60
2023/01/26 04:41:41;;;;;;;14.68;7.57;;;;;;;;;;5093345;28;20593;-59
2023/01/26 04:44:07;;;;;;;14.77;7.43;;;;;;;;;;5091930;28;20030;-60
2023/01/26 04:46:33;;;;;;;12.20;6.78;;;;;;;;;;5092097;28;20031;-60
2023/01/26 04:48:58;;;;;;;15.43;7.85;;;;;;;;;;5091225;28;20008;-60
2023/01/26 04:51:24;;;;;;;17.98;7.97;;;;;;;;;;5092828;28;20042;-59
2023/01/26 04:53:49;;;;;;;16.27;7.60;;;;;;;;;;5093325;28;20497;-59
2023/01/26 04:56:25;;;;;;;14.25;7.82;;;;;;;;;;5095960;28;20432;-58
2023/01/26 04:58:51;;;;;;;17.00;8.30;;;;;;;;;;5096731;28;20020;-60
2023/01/26 05:01:16;;;;;;;13.93;7.47;;;;;;;;;;5096767;28;20461;-59
2023/01/26 05:03:42;;;;;;;11.02;6.60;;;;;;;;;;5096855;28;20069;-58
2023/01/26 05:06:07;;;;;;;21.17;8.40;;;;;;;;;;5096183;28;20044;-59
2023/01/26 05:08:33;;;;;;;14.02;7.80;;;;;;;;;;5096571;28;20055;-60
2023/01/26 05:10:58;;;;;;;15.65;7.90;;;;;;;;;;5096619;28;20054;-59
2023/01/26 05:13:24;;;;;;;16.05;8.98;;;;;;;;;;5095739;28;20020;-59
2023/01/26 05:15:50;;;;;;;17.33;8.20;;;;;;;;;;5095358;28;20537;-57
2023/01/26 05:18:15;;;;;;;17.42;7.68;;;;;;;;;;5096959;28;20482;-59
2023/01/26 05:20:41;;;;;;;15.50;8.13;;;;;;;;;;5098280;28;20052;-60
2023/01/26 05:23:06;;;;;;;17.27;8.15;;;;;;;;;;5094624;28;20020;-58
2023/01/26 05:25:32;;;;;;;13.70;7.63;;;;;;;;;;5098499;28;20016;-59
2023/01/26 05:27:57;;;;;;;16.83;8.57;;;;;;;;;;5097507;28;20376;-59
2023/01/26 05:30:23;;;;;;;21.38;9.00;;;;;;;;;;5095848;28;20027;-58
2023/01/26 05:32:49;;;;;;;20.75;9.10;;;;;;;;;;5094750;28;20013;-58
2023/01/26 05:35:14;;;;;;;17.92;8.48;;;;;;;;;;5094402;28;20043;-59
2023/01/26 05:37:41;;;;;;;18.17;9.07;;;;;;;;;;5095849;28;20020;-58
2023/01/26 05:40:07;;;;;;;17.85;8.85;;;;;;;;;;5095759;28;20065;-61
2023/01/26 05:42:32;;;;;;;17.77;9.15;;;;;;;;;;5095904;28;20087;-61
2023/01/26 05:44:58;;;;;;;18.48;9.13;;;;;;;;;;5095683;28;20134;-58
2023/01/26 05:47:24;;;;;;;20.95;9.55;;;;;;;;;;5094231;28;20357;-59
2023/01/26 05:49:50;;;;;;;20.90;9.45;;;;;;;;;;5095185;28;20456;-58
2023/01/26 05:52:17;;;;;;;22.00;9.73;;;;;;;;;;5095407;28;20170;-59
2023/01/26 05:54:42;;;;;;;18.92;9.60;;;;;;;;;;5094136;28;20081;-57
2023/01/26 05:57:08;;;;;;;24.15;9.52;;;;;;;;;;5093742;28;20110;-59
2023/01/26 05:59:33;;;;;;;25.50;10.52;;;;;;;;;;5095650;28;20091;-57
2023/01/26 06:01:59;;;;;;;18.23;9.32;;;;;;;;;;5095070;28;20016;-60
2023/01/26 06:04:25;;;;;;;23.20;8.90;;;;;;;;;;5095057;28;20019;-58
2023/01/26 06:06:55;;;;;;;21.33;8.75;;;;;;;;;;5092818;28;20198;-59
2023/01/26 06:09:22;;;;;;;18.40;8.90;;;;;;;;;;5093774;28;20044;-61
2023/01/26 06:11:47;;;;;;;24.48;8.82;;;;;;;;;;5095371;28;20020;-58
2023/01/26 06:14:13;;;;;;;24.70;9.63;;;;;;;;;;5093518;28;20554;-57
2023/01/26 06:16:39;;;;;;;20.15;9.32;;;;;;;;;;5093808;28;20428;-56
2023/01/26 06:19:06;;;;;;;22.23;8.88;;;;;;;;;;5094779;28;20472;-59
2023/01/26 06:21:31;;;;;;;18.17;8.23;;;;;;;;;;5093222;28;20023;-57
2023/01/26 06:23:57;;;;;;;22.75;9.38;;;;;;;;;;5094620;28;20103;-58
2023/01/26 06:26:23;;;;;;;21.70;9.05;;;;;;;;;;5093555;28;20435;-59
2023/01/26 06:28:49;;;;;;;23.42;8.40;;;;;;;;;;5093344;28;20016;-62
2023/01/26 06:31:14;;;;;;;21.50;8.85;;;;;;;;;;5094176;28;20149;-60
2023/01/26 06:33:40;;;;;;;18.73;8.38;;;;;;;;;;5092941;28;20035;-60
2023/01/26 06:36:09;;;;;;;16.23;8.15;;;;;;;;;;5094157;28;20079;-58
2023/01/26 06:38:35;;;;;;;21.75;8.02;;;;;;;;;;5092818;28;20027;-59
2023/01/26 06:41:02;;;;;;;24.25;9.32;;;;;;;;;;5092513;28;20016;-58
2023/01/26 06:43:34;;;;;;;21.65;8.15;;;;;;;;;;5093913;28;20020;-60
2023/01/26 06:46:01;;;;;;;20.95;8.15;;;;;;;;;;5094087;28;20069;-58
2023/01/26 06:48:28;;;;;;;17.42;7.22;;;;;;;;;;5092839;28;20115;-58
2023/01/26 06:50:57;;;;;;;24.30;8.40;;;;;;;;;;5093685;28;20020;-61
2023/01/26 06:53:29;;;;;;;23.90;9.07;;;;;;;;;;5093895;28;20058;-59
2023/01/26 06:55:54;;;;;;;20.55;7.38;;;;;;;;;;5093495;28;20016;-59
2023/01/26 06:58:20;;;;;;;22.73;7.90;;;;;;;;;;5092983;28;20022;-60
2023/01/26 07:00:45;;;;;;;21.40;7.35;;;;;;;;;;5093120;28;20056;-59
2023/01/26 07:03:10;;;;;;;14.32;6.57;;;;;;;;;;5092968;28;20012;-60
2023/01/26 07:05:36;;;;;;;18.85;7.25;;;;;;;;;;5093080;28;20044;-61
2023/01/26 07:08:03;;;;;;;15.15;6.05;;;;;;;;;;5093069;28;20126;-61
2023/01/26 07:10:29;;;;;;;13.90;6.72;;;;;;;;;;5093462;28;20119;-63
2023/01/26 07:12:55;;;;;;;15.05;6.03;;;;;;;;;;5093543;28;20012;-59
2023/01/26 07:15:20;;;;;;;16.55;6.57;;;;;;;;;;5092853;28;20028;-60
2023/01/26 07:17:45;;;;;;;17.77;6.95;;;;;;;;;;5091778;28;20499;-60
2023/01/26 07:20:11;;;;;;;19.77;6.75;;;;;;;;;;5091537;28;20344;-61
2023/01/26 07:22:37;;;;;;;13.93;5.90;;;;;;;;;;5093181;28;20145;-59
2023/01/26 07:25:02;;;;;;;10.82;4.38;;;;;;;;;;5091214;28;20092;-60
2023/01/26 07:27:28;;;;;;;12.57;4.22;;;;;;;;;;5092318;28;20430;-60
2023/01/26 07:29:53;;;;;;;9.50;3.80;;;;;;;;;;5093961;28;20517;-60
2023/01/26 07:32:19;;;;;;;10.77;4.07;;;;;;;;;;5093396;28;20039;-59
2023/01/26 07:34:44;;;;;;;5.22;2.55;;;;;;;;;;5093189;28;20416;-60
2023/01/26 07:37:09;;;;;;;14.85;3.10;;;;;;;;;;5095426;28;20020;-62
2023/01/26 07:39:35;;;;;;;11.52;3.08;;;;;;;;;;5093536;28;20469;-61
2023/01/26 07:42:00;;;;;;;9.23;3.47;;;;;;;;;;5093286;28;20486;-62
2023/01/26 07:44:26;;;;;;;6.05;2.53;;;;;;;;;;5092447;28;20043;-60
2023/01/26 07:46:53;;;;;;;4.43;1.52;;;;;;;;;;5093019;28;20032;-63
2023/01/26 07:49:18;;;;;;;7.05;1.67;;;;;;;;;;5092586;28;20020;-61
2023/01/26 07:51:44;;;;;;;7.90;2.10;;;;;;;;;;5093527;28;20024;-62
2023/01/26 07:54:11;;;;;;;3.95;1.75;;;;;;;;;;5094028;28;20032;-60
2023/01/26 07:56:37;;;;;;;4.30;1.63;;;;;;;;;;5094393;28;20012;-60
2023/01/26 07:59:03;;;;;;;8.20;1.00;;;;;;;;;;5093844;28;20507;-61
2023/01/26 08:01:28;;;;;;;8.02;1.42;;;;;;;;;;5090955;28;20028;-61
2023/01/26 08:03:54;;;;;;;1.83;0.50;;;;;;;;;;5093455;28;20069;-60
2023/01/26 08:06:20;;;;;;;4.68;1.15;;;;;;;;;;5092451;28;20115;-61
2023/01/26 08:08:49;;;;;;;4.20;1.00;;;;;;;;;;5092706;28;20055;-61
2023/01/26 08:11:17;;;;;;;1.58;0.75;;;;;;;;;;5092702;28;20053;-60
2023/01/26 08:13:46;;;;;;;3.85;0.77;;;;;;;;;;5093150;28;20022;-61
2023/01/26 08:16:11;;;;;;;3.15;0.70;;;;;;;;;;5092679;28;20418;-61
2023/01/26 08:18:37;;;;;;;4.95;0.80;;;;;;;;;;5092357;28;20016;-60
2023/01/26 08:21:03;;;;;;;1.10;0.55;;;;;;;;;;5092021;28;20020;-61
2023/01/26 08:23:29;;;;;;;3.35;0.60;;;;;;;;;;5092428;28;20076;-59
2023/01/26 08:25:54;;;;;;;4.85;0.70;;;;;;;;;;5092300;28;20027;-59
2023/01/26 08:28:20;;;;;;;2.58;0.52;;;;;;;;;;5093022;28;20024;-59
2023/01/26 08:30:45;;;;;;;1.02;0.35;;;;;;;;;;5091715;28;20020;-59
2023/01/26 08:33:11;;;;;;;1.73;0.35;;;;;;;;;;5092213;28;20081;-60
2023/01/26 08:35:36;;;;;;;2.28;0.60;;;;;;;;;;5092465;28;20363;-61
2023/01/26 08:38:02;;;;;;;1.38;0.20;;;;;;;;;;5092749;28;20025;-60
2023/01/26 08:40:27;;;;;;;1.05;0.10;;;;;;;;;;5092508;28;20020;-60
2023/01/26 08:42:53;;;;;;;0.55;0.32;;;;;;;;;;5092499;28;20368;-60
2023/01/26 08:45:19;;;;;;;0.52;0.30;;;;;;;;;;5092241;28;20020;-60
2023/01/26 08:47:47;;;;;;;0.28;0.10;;;;;;;;;;5092477;28;20043;-60
2023/01/26 08:50:13;;;;;;;0.77;0.17;;;;;;;;;;5091056;28;20017;-60
2023/01/26 08:52:39;;;;;;;1.60;0.20;;;;;;;;;;5092582;28;20373;-61
2023/01/26 08:55:05;;;;;;;0.32;0.20;;;;;;;;;;5092579;28;20119;-59
2023/01/26 08:57:30;;;;;;;0.98;0.40;;;;;;;;;;5092294;28;20042;-60
2023/01/26 08:59:57;;;;;;;0.82;0.17;;;;;;;;;;5093318;28;20162;-59
2023/01/26 09:02:22;;;;;;;1.15;0.22;;;;;;;;;;5092814;28;20103;-62
2023/01/26 09:04:48;;;;;;;0.63;0.52;;;;;;;;;;5092630;28;20159;-59
2023/01/26 09:07:14;;;;;;;1.45;0.30;;;;;;;;;;5092306;28;20047;-59
2023/01/26 09:09:39;;;;;;;1.42;0.30;;;;;;;;;;5091217;28;20478;-61
2023/01/26 09:12:05;;;;;;;1.20;0.40;;;;;;;;;;5092109;28;20035;-60
2023/01/26 09:14:30;;;;;;;1.42;0.20;;;;;;;;;;5091546;28;20045;-60
2023/01/26 09:16:56;;;;;;;1.13;0.30;;;;;;;;;;5092324;28;20020;-62
2023/01/26 09:19:21;;;;;;;0.45;0.30;;;;;;;;;;5090985;28;20069;-61
2023/01/26 09:21:51;;;;;;;0.73;0.25;;;;;;;;;;5090894;28;20051;-61
2023/01/26 09:24:16;;;;;;;0.70;0.20;;;;;;;;;;5092309;28;20468;-60
2023/01/26 09:26:41;;;;;;;2.22;0.63;;;;;;;;;;5092741;28;20061;-60
2023/01/26 09:29:07;;;;;;;1.00;0.10;;;;;;;;;;5092350;28;20020;-60
2023/01/26 09:31:32;;;;;;;0.93;0.10;;;;;;;;;;5092024;28;20020;-61
2023/01/26 09:33:58;;;;;;;1.80;0.30;;;;;;;;;;5092111;28;20035;-60
2023/01/26 09:36:23;;;;;;;1.45;0.10;;;;;;;;;;5092436;28;20461;-59
2023/01/26 09:38:50;;;;;;;1.17;0.10;;;;;;;;;;5092559;28;20020;-59
2023/01/26 09:41:34;;;;;;;0.68;0.30;;;;;;;;;;5090912;28;20052;-60
2023/01/26 09:44:03;;;;;;;2.42;0.40;;;;;;;;;;5095678;28;20020;-60
2023/01/26 09:46:47;;;;;;;1.50;0.20;;;;;;;;;;5094667;28;20016;-61
2023/01/26 09:49:14;;;;;;;1.20;0.22;;;;;;;;;;5096335;28;20085;-61
2023/01/26 09:51:49;;;;;;;1.88;0.40;;;;;;;;;;5097451;28;20016;-67
2023/01/26 09:54:28;;;;;;;1.23;0.40;;;;;;;;;;5097334;28;20108;-60
2023/01/26 09:56:54;;;;;;;1.20;0.20;;;;;;;;;;5095284;28;20542;-60
2023/01/26 09:59:26;;;;;;;1.10;0.30;;;;;;;;;;5095912;28;20016;-60
2023/01/26 10:02:04;;;;;;;1.08;0.00;;;;;;;;;;5094836;28;20016;-60
2023/01/26 10:04:35;;;;;;;0.98;0.10;;;;;;;;;;5093825;28;20103;-62
2023/01/26 10:07:07;;;;;;;0.75;0.10;;;;;;;;;;5094745;28;20012;-61
2023/01/26 10:09:35;;;;;;;2.33;0.10;;;;;;;;;;5094916;28;20066;-60
2023/01/26 10:12:05;;;;;;;0.25;0.10;;;;;;;;;;5094995;28;20080;-63
2023/01/26 10:14:42;;;;;;;0.38;0.00;;;;;;;;;;5094695;28;20060;-59
2023/01/26 10:17:16;;;;;;;1.10;0.22;;;;;;;;;;5094446;28;20028;-61
2023/01/26 10:19:48;;;;;;;1.50;0.32;;;;;;;;;;5094502;28;20020;-59
2023/01/26 10:22:28;;;;;;;0.75;0.20;;;;;;;;;;5095069;28;20028;-61
2023/01/26 10:24:55;;;;;;;0.85;0.20;;;;;;;;;;5094447;28;20071;-60
2023/01/26 10:27:21;;;;;;;1.02;0.30;;;;;;;;;;5094947;28;20016;-61
2023/01/26 10:29:46;;;;;;;3.70;0.20;;;;;;;;;;5092897;28;20046;-61
2023/01/26 10:32:13;;;;;;;1.73;0.13;;;;;;;;;;5094734;28;20012;-60
2023/01/26 10:34:40;;;;;;;1.13;0.10;;;;;;;;;;5094646;28;20507;-60
2023/01/26 10:37:22;;;;;;;1.20;0.50;;;;;;;;;;5094081;28;20044;-62
2023/01/26 10:39:56;;;;;;;2.45;0.40;;;;;;;;;;5095579;28;20530;-61
2023/01/26 10:42:22;;;;;;;0.90;0.10;;;;;;;;;;5095414;28;20023;-60
2023/01/26 10:44:49;;;;;;;1.50;0.10;;;;;;;;;;5093094;28;20032;-60
2023/01/26 10:47:14;;;;;;;0.98;0.40;;;;;;;;;;5093531;28;20339;-61
2023/01/26 10:49:40;;;;;;;2.72;0.15;;;;;;;;;;5091978;28;20019;-61
2023/01/26 10:52:07;;;;;;;2.33;0.20;;;;;;;;;;5091671;28;20485;-61
2023/01/26 10:54:35;;;;;;;1.83;0.10;;;;;;;;;;5091467;28;20028;-62
2023/01/26 10:57:09;;;;;;;1.67;0.73;;;;;;;;;;5092678;28;20534;-61
2023/01/26 10:59:53;;;;;;;1.02;0.20;;;;;;;;;;5091977;28;20016;-60
2023/01/26 11:02:20;;;;;;;1.95;0.52;;;;;;;;;;5093482;28;20085;-61
2023/01/26 11:05:05;;;;;;;1.65;0.45;;;;;;;;;;5093012;28;20535;-61
2023/01/26 11:07:34;;;;;;;1.10;0.20;;;;;;;;;;5091014;28;20019;-60
2023/01/26 11:10:15;;;;;;;2.97;0.82;;;;;;;;;;5091320;28;20384;-62
2023/01/26 11:12:40;;;;;;;2.17;0.20;;;;;;;;;;5093394;28;20023;-61
2023/01/26 11:15:14;;;;;;;2.55;0.40;;;;;;;;;;5091371;28;20388;-61
2023/01/26 11:17:44;;;;;;;1.08;0.17;;;;;;;;;;5092462;28;20020;-60
2023/01/26 11:20:10;;;;;;;3.03;0.82;;;;;;;;;;5093180;28;20023;-61
2023/01/26 11:22:40;;;;;;;2.47;0.10;;;;;;;;;;5092962;28;20016;-62
2023/01/26 11:25:16;;;;;;;1.48;0.30;;;;;;;;;;5093184;28;20016;-63
2023/01/26 11:27:47;;;;;;;3.10;0.32;;;;;;;;;;5091529;28;20020;-61
2023/01/26 11:30:35;;;;;;;3.47;0.30;;;;;;;;;;5091786;28;20544;-62
2023/01/26 11:33:13;;;;;;;2.15;0.40;;;;;;;;;;5092862;28;20020;-60
2023/01/26 11:36:01;;;;;;;2.58;0.30;;;;;;;;;;5093412;28;20035;-61
2023/01/26 11:39:01;;;;;;;1.75;0.17;;;;;;;;;;5092486;28;20038;-61
2023/01/26 11:41:37;;;;;;;3.15;0.32;;;;;;;;;;5030364;28;20509;-61
2023/01/26 11:44:19;;;;;;;1.27;0.20;;;;;;;;;;5083892;28;20106;-60
2023/01/26 11:46:44;;;;;;;1.48;0.50;;;;;;;;;;5093386;28;20031;-59
2023/01/26 11:49:13;;;;;;;3.00;0.47;;;;;;;;;;5092805;28;20019;-60
2023/01/26 11:51:41;;;;;;;1.25;0.45;;;;;;;;;;5092965;28;20023;-58
2023/01/26 11:54:18;;;;;;;2.72;0.68;;;;;;;;;;5091397;28;20032;-61
2023/01/26 11:56:50;;;;;;;2.60;0.35;;;;;;;;;;5093075;28;20028;-60
2023/01/26 11:59:18;;;;;;;2.00;0.10;;;;;;;;;;5092996;28;20055;-58
2023/01/26 12:01:59;;;;;;;5.15;0.52;;;;;;;;;;5092943;28;20074;-59
2023/01/26 12:04:27;;;;;;;0.93;0.20;;;;;;;;;;5091436;28;20020;-58
2023/01/26 12:07:04;;;;;;;4.97;0.32;;;;;;;;;;5092379;28;20073;-63
2023/01/26 12:09:35;;;;;;;2.53;0.20;;;;;;;;;;5093025;28;20024;-59
2023/01/26 12:12:18;;;;;;;2.42;0.47;;;;;;;;;;5093079;28;20012;-61
2023/01/26 12:14:51;;;;;;;2.05;0.28;;;;;;;;;;5092700;28;20028;-66
2023/01/26 12:17:35;;;;;;;2.83;0.22;;;;;;;;;;5092833;28;20381;-61
2023/01/26 12:20:23;;;;;;;4.20;0.43;;;;;;;;;;5092128;28;20024;-59
2023/01/26 12:22:57;;;;;;;1.73;0.22;;;;;;;;;;5092404;28;20574;-58
2023/01/26 12:25:26;;;;;;;2.00;0.60;;;;;;;;;;5091303;28;20024;-57
2023/01/26 12:28:03;;;;;;;2.72;0.30;;;;;;;;;;5092505;28;20025;-60
2023/01/26 12:30:47;;;;;;;3.67;0.45;;;;;;;;;;5092394;28;20043;-58
2023/01/26 12:33:13;;;;;;;0.95;0.10;;;;;;;;;;5091936;28;20641;-60
2023/01/26 12:35:52;;;;;;;2.40;0.30;;;;;;;;;;5092013;28;20040;-60
2023/01/26 12:38:21;;;;;;;6.03;0.95;;;;;;;;;;5092697;28;20073;-59
2023/01/26 12:40:53;;;;;;;4.65;0.43;;;;;;;;;;5092521;28;20028;-61
2023/01/26 12:43:25;;;;;;;2.35;0.30;;;;;;;;;;5091278;28;20388;-58
2023/01/26 12:45:52;;;;;;;2.20;0.38;;;;;;;;;;5092599;28;20016;-61
2023/01/26 12:48:27;;;;;;;2.08;0.38;;;;;;;;;;5092423;28;20169;-59
2023/01/26 12:50:52;;;;;;;;;;;;;;;;;;5092653;28;20027;-60
2023/01/26 12:53:21;;;;;;;4.88;0.43;;;;;;;;;;5091293;28;19983;-61
2023/01/26 12:56:10;;;;;;;2.53;0.30;;;;;;;;;;5094688;28;20036;-63
2023/01/26 12:58:41;;;;;;;4.32;0.20;;;;;;;;;;5086671;28;20388;-61
2023/01/26 13:01:14;;;;;;;3.47;0.38;;;;;;;;;;5094759;28;20070;-59
2023/01/26 13:03:56;;;;;;;6.10;1.70;;;;;;;;;;5094081;28;20031;-60
2023/01/26 13:06:26;;;;;;;2.22;0.73;;;;;;;;;;5092918;28;20118;-58
2023/01/26 13:08:52;;;;;;;1.02;0.13;;;;;;;;;;5091793;28;20321;-59
2023/01/26 13:11:36;;;;;;;1.27;0.30;;;;;;;;;;5092732;28;20016;-59
2023/01/26 13:14:02;;;;;;;0.95;0.20;;;;;;;;;;5092298;28;20059;-60
2023/01/26 13:16:32;;;;;;;4.20;0.55;;;;;;;;;;5092631;28;20114;-61
2023/01/26 13:18:58;;;;;;;3.50;0.38;;;;;;;;;;5095631;28;20087;-59
2023/01/26 13:21:28;;;;;;;2.45;0.40;;;;;;;;;;5096183;28;20476;-59
2023/01/26 13:23:53;;;;;;;2.15;0.30;;;;;;;;;;5096105;28;20028;-59
2023/01/26 13:26:22;;;;;;;3.83;0.40;;;;;;;;;;5095652;28;20126;-60
2023/01/26 13:28:48;;;;;;;4.63;0.93;;;;;;;;;;5096068;28;20028;-59
2023/01/26 13:31:28;;;;;;;3.60;0.47;;;;;;;;;;5095703;28;20019;-61
2023/01/26 13:33:54;;;;;;;4.10;0.47;;;;;;;;;;5095131;28;20036;-60
2023/01/26 13:36:20;;;;;;;3.72;0.45;;;;;;;;;;5095527;28;20489;-59
2023/01/26 13:38:59;;;;;;;3.22;0.60;;;;;;;;;;5096145;28;20020;-60
2023/01/26 13:41:24;;;;;;;1.35;0.30;;;;;;;;;;5095728;28;20073;-60
2023/01/26 13:44:12;;;;;;;2.63;0.30;;;;;;;;;;5095677;28;20020;-58
2023/01/26 13:46:47;;;;;;;3.90;0.40;;;;;;;;;;5093733;28;20030;-59
2023/01/26 13:49:22;;;;;;;4.40;0.55;;;;;;;;;;5096367;28;20034;-65
2023/01/26 13:51:48;;;;;;;5.63;0.45;;;;;;;;;;5095333;28;20016;-58
2023/01/26 13:54:15;;;;;;;6.03;0.88;;;;;;;;;;5095716;28;20042;-60
2023/01/26 13:56:42;;;;;;;7.55;1.50;;;;;;;;;;5095379;28;20542;-60
2023/01/26 13:59:11;;;;;;;3.13;0.60;;;;;;;;;;5093381;28;20353;-60
2023/01/26 14:01:44;;;;;;;2.58;0.22;;;;;;;;;;5094710;28;20093;-58
2023/01/26 14:04:26;;;;;;;4.03;0.35;;;;;;;;;;5095095;28;20024;-60
2023/01/26 14:06:55;;;;;;;3.03;0.90;;;;;;;;;;5094420;28;20052;-59
2023/01/26 14:09:21;;;;;;;2.15;0.50;;;;;;;;;;5094566;28;20401;-61
2023/01/26 14:11:52;;;;;;;5.70;0.50;;;;;;;;;;5095226;28;20066;-59
2023/01/26 14:14:25;;;;;;;3.05;0.30;;;;;;;;;;5095628;28;20028;-59
2023/01/26 14:16:51;;;;;;;3.50;0.50;;;;;;;;;;5095925;28;20047;-61
2023/01/26 14:19:18;;;;;;;8.48;0.80;;;;;;;;;;5095749;28;20047;-60
2023/01/26 14:21:51;;;;;;;4.63;0.70;;;;;;;;;;5094555;28;20062;-59
2023/01/26 14:24:17;;;;;;;3.60;0.77;;;;;;;;;;5094736;28;20020;-62
2023/01/26 14:26:42;;;;;;;5.03;0.73;;;;;;;;;;5095499;28;20099;-59
2023/01/26 14:29:16;;;;;;;2.22;0.20;;;;;;;;;;5094498;28;20084;-61
2023/01/26 14:31:42;;;;;;;6.30;0.50;;;;;;;;;;5094577;28;20016;-60
2023/01/26 14:34:08;;;;;;;5.15;0.60;;;;;;;;;;5095181;28;20038;-58
2023/01/26 14:36:38;;;;;;;6.15;0.82;;;;;;;;;;5095818;28;20024;-61
2023/01/26 14:39:13;;;;;;;4.28;0.57;;;;;;;;;;5095916;28;20120;-59
2023/01/26 14:41:39;;;;;;;2.78;0.50;;;;;;;;;;5095046;28;20043;-60
2023/01/26 14:44:06;;;;;;;4.68;1.00;;;;;;;;;;5095017;28;20020;-61
2023/01/26 14:46:45;;;;;;;3.20;0.40;;;;;;;;;;5094750;28;20027;-61
2023/01/26 14:49:13;;;;;;;8.85;0.50;;;;;;;;;;5094928;28;20054;-61
2023/01/26 14:51:42;;;;;;;2.97;0.75;;;;;;;;;;5094744;28;20461;-59
2023/01/26 14:54:17;;;;;;;8.40;0.70;;;;;;;;;;5093608;28;20476;-59
2023/01/26 14:56:44;;;;;;;3.45;0.60;;;;;;;;;;5092301;28;20480;-60
2023/01/26 14:59:16;;;;;;;2.22;0.30;;;;;;;;;;5092747;28;20032;-60
2023/01/26 15:01:41;;;;;;;7.88;1.00;;;;;;;;;;5093916;28;20103;-59
2023/01/26 15:04:30;;;;;;;7.50;1.33;;;;;;;;;;5094319;28;20054;-61
2023/01/26 15:07:16;;;;;;;6.43;0.63;;;;;;;;;;5094012;28;20412;-59
2023/01/26 15:09:50;;;;;;;5.07;0.57;;;;;;;;;;5092088;28;20077;-62
2023/01/26 15:12:16;;;;;;;3.00;0.40;;;;;;;;;;5092486;28;20427;-61
2023/01/26 15:14:44;;;;;;;8.32;0.90;;;;;;;;;;5093527;28;20028;-60
2023/01/26 15:17:25;;;;;;;8.18;2.63;;;;;;;;;;5093214;28;20032;-59
2023/01/26 15:19:50;;;;;;;7.35;0.73;;;;;;;;;;5093722;28;20019;-61
2023/01/26 15:22:20;;;;;;;7.85;1.25;;;;;;;;;;5093413;28;20012;-60
2023/01/26 15:24:46;;;;;;;9.25;1.17;;;;;;;;;;5094093;28;20016;-61
2023/01/26 15:27:13;;;;;;;9.57;1.02;;;;;;;;;;5093067;28;20020;-59
2023/01/26 15:29:38;;;;;;;5.97;0.40;;;;;;;;;;5093147;28;20377;-60
2023/01/26 15:32:04;;;;;;;3.95;0.38;;;;;;;;;;5091688;28;20031;-60
2023/01/26 15:34:33;;;;;;;7.32;0.43;;;;;;;;;;5092899;28;20027;-61